Latest Weather Observations for Lucas Heights

IDN60801

Issued at 2:05 pm EST Monday 15 September 2014 (issued every 30 minutes, with the page automatically refreshed every 10 minutes)

About weather observations | Map of weather stations | Latest weather observations for NSW | Other Formats
Station Details ID: 066023 Name: LUCAS HEIGHTS AWS Lat: -34.05 Lon: 150.98 Height: 140.0 m
Data from the previous 72 hours. | See also: Recent months for locations in New South Wales
Date/Time
EST
Temp
°C
App
Temp
°C
Dew
Point
Rel
Hum
%
Delta-T
°C
Wind Press
QNH
hPa
Press
MSL
hPa
Rain
since 9 am
mm
Dir
 
Spd
km/h
Gust
km/h
Spd
kts
Gust
kts
15/01:45pm 18.1 15.2 11.0 63 3.9 E 17 22 9 12 1015.5 - 0.0
15/01:30pm 18.9 16.4 10.9 59 4.4 ENE 15 26 8 14 1015.7 - 0.0
15/01:15pm 18.7 16.4 10.5 59 4.4 E 13 19 7 10 1015.8 - 0.0
15/01:00pm 18.4 16.7 8.3 51 5.2 N 7 15 4 8 1015.9 - 0.0
15/12:45pm 18.8 17.2 8.7 52 5.3 NE 7 15 4 8 1016.2 - 0.0
15/12:30pm 18.5 16.9 8.6 52 5.2 NNE 7 13 4 7 1016.5 - 0.0
15/12:15pm 18.9 16.8 8.3 50 5.5 NNW 9 15 5 8 1016.7 - 0.0
15/12:00pm 19.4 17.7 10.0 54 5.1 NW 9 19 5 10 1016.9 - 0.0
15/11:45am 18.4 16.8 8.9 54 5.0 N 7 15 4 8 1017.2 - 0.0
15/11:30am 18.4 16.0 8.5 52 5.1 N 11 20 6 11 1017.4 - 0.0
15/11:15am 18.5 16.3 9.3 55 4.9 N 11 22 6 12 1017.5 - 0.0
15/11:00am 18.7 17.6 10.6 59 4.4 N 7 19 4 10 1017.7 - 0.0
15/10:45am 17.9 15.6 10.5 62 4.0 N 13 20 7 11 1017.8 - 0.0
15/10:30am 16.9 15.1 9.3 61 4.0 NNW 9 19 5 10 1018.0 - 0.0
15/10:15am 17.1 15.5 10.3 64 3.6 NW 9 17 5 9 1017.9 - 0.0
15/10:00am 17.2 16.3 11.2 68 3.3 NW 7 15 4 8 1018.1 - 0.0
15/09:45am 16.5 15.7 11.1 70 2.9 NW 6 11 3 6 1018.3 - 0.0
15/09:30am 16.2 15.2 11.1 72 2.8 WNW 7 13 4 7 1018.5 - 0.0
15/09:15am 16.2 15.2 11.1 72 2.8 NW 7 13 4 7 1018.6 - 0.0
15/09:00am 16.8 16.3 12.0 73 2.6 NNW 6 11 3 6 1018.6 - 0.0
15/08:45am 16.4 16.8 12.4 77 2.2 ENE 2 6 1 3 1018.7 - 0.0
15/08:30am 15.5 15.0 12.2 81 1.8 W 6 9 3 5 1018.9 - 0.0
15/08:15am 14.7 14.0 11.9 83 1.5 WSW 7 13 4 7 1018.9 - 0.0
15/08:00am 14.6 14.1 12.5 87 1.2 W 7 11 4 6 1018.9 - 0.0
15/07:45am 14.1 13.6 12.5 90 0.9 W 7 13 4 7 1018.8 - 0.0
15/07:30am 12.9 12.2 11.4 91 0.8 S 6 6 3 3 1018.7 - 0.0
15/07:15am 11.9 10.9 10.4 90 0.8 SSE 6 7 3 4 1018.7 - 0.0
15/07:00am 11.9 10.9 10.4 90 0.8 SSE 6 7 3 4 1018.6 - 0.0
15/06:45am 11.7 10.5 10.2 90 0.8 S 7 9 4 5 1018.6 - 0.0
15/06:30am 11.6 10.3 10.1 90 0.8 SSE 7 9 4 5 1018.4 - 0.0
15/06:15am 11.4 9.7 9.9 90 0.8 SSE 9 11 5 6 1018.4 - 0.0
15/06:00am 11.1 8.9 9.5 90 0.8 SE 11 13 6 7 1018.2 - 0.0
15/05:45am 11.1 8.6 9.6 90 0.8 SSE 13 15 7 8 1018.1 - 0.0
15/05:30am 11.4 8.9 9.8 90 0.8 SE 13 15 7 8 1018.1 - 0.0
15/05:15am 11.6 9.2 10.1 90 0.8 SSE 13 15 7 8 1018.0 - 0.0
15/05:00am 11.5 9.5 10.0 90 0.8 SSE 11 13 6 7 1018.0 - 0.0
15/04:45am 11.4 9.0 9.9 90 0.8 SSE 13 13 7 7 1018.1 - 0.0
15/04:30am 11.4 9.0 9.9 90 0.8 SSE 13 13 7 7 1018.1 - 0.0
15/04:15am 11.4 9.3 9.9 90 0.8 S 11 13 6 7 1018.1 - 0.0
15/04:00am 11.8 9.8 10.3 90 0.8 S 11 13 6 7 1018.1 - 0.0
15/03:45am 11.6 9.2 10.1 90 0.8 S 13 15 7 8 1018.1 - 0.0
15/03:30am 11.7 9.7 10.1 90 0.8 S 11 13 6 7 1018.1 - 0.0
15/03:15am 11.7 9.3 10.2 90 0.8 S 13 15 7 8 1018.1 - 0.0
15/03:00am 11.6 9.2 10.1 90 0.8 S 13 15 7 8 1018.1 - 0.0
15/02:45am 11.6 9.2 10.1 90 0.8 S 13 15 7 8 1018.2 - 0.0
15/02:30am 11.4 8.9 9.8 90 0.8 SSE 13 15 7 8 1018.3 - 0.0
15/02:15am 11.6 9.2 10.0 90 0.8 SSE 13 15 7 8 1018.3 - 0.0
15/02:00am 11.8 9.4 10.1 89 0.9 S 13 19 7 10 1018.4 - 0.0
15/01:45am 11.6 8.4 9.8 89 0.9 S 17 22 9 12 1018.6 - 0.0
15/01:30am 11.6 8.0 9.8 89 0.9 S 19 20 10 11 1018.8 - 0.0
15/01:15am 11.6 8.3 9.6 87 1.0 S 17 22 9 12 1019.0 - 0.0
15/01:00am 12.3 10.0 10.3 87 1.0 S 13 19 7 10 1019.0 - 0.0
15/12:45am 12.8 11.0 10.7 87 1.1 S 11 15 6 8 1019.3 - 0.0
15/12:30am 13.2 11.4 11.0 86 1.2 S 11 15 6 8 1019.4 - 0.0
15/12:15am 13.4 11.3 11.1 86 1.2 SSW 13 15 7 8 1019.4 - 0.0
15/12:00am 13.5 11.4 11.3 86 1.2 SSW 13 19 7 10 1019.6 - 0.0
 
Date/Time
EST
Temp
°C
App
Temp
°C
Dew
Point
Rel
Hum
%
Delta-T
°C
Wind Press
QNH
hPa
Press
MSL
hPa
Rain
since 9 am
mm
Dir
 
Spd
km/h
Gust
km/h
Spd
kts
Gust
kts
14/11:45pm 13.5 11.1 11.3 86 1.2 SSW 15 17 8 9 1019.7 - 0.0
14/11:30pm 13.4 11.3 11.1 86 1.2 SW 13 15 7 8 1019.7 - 0.0
14/11:15pm 13.5 11.8 11.2 86 1.2 SW 11 15 6 8 1019.5 - 0.0
14/11:00pm 13.6 11.6 11.4 86 1.2 WSW 13 17 7 9 1019.5 - 0.0
14/10:45pm 13.5 11.0 11.2 86 1.2 WSW 15 19 8 10 1019.7 - 0.0
14/10:30pm 13.4 11.3 11.1 86 1.2 WSW 13 17 7 9 1019.8 - 0.0
14/10:15pm 13.7 12.4 11.4 86 1.2 SW 9 13 5 7 1019.7 - 0.0
14/10:00pm 13.6 11.9 11.2 85 1.3 S 11 19 6 10 1019.6 - 0.0
14/09:45pm 13.8 11.7 11.3 85 1.3 S 13 19 7 10 1019.5 - 0.0
14/09:30pm 14.1 11.7 11.4 84 1.4 SSE 15 22 8 12 1019.4 - 0.0
14/09:15pm 14.2 11.4 11.4 83 1.5 SSE 17 22 9 12 1019.3 - 0.0
14/09:00pm 14.4 11.3 11.5 83 1.6 SSE 19 26 10 14 1019.3 - 0.0
14/08:45pm 14.5 11.7 11.5 82 1.6 SSE 17 22 9 12 1019.4 - 0.0
14/08:30pm 14.7 11.4 11.6 82 1.7 SSE 20 30 11 16 1019.3 - 0.0
14/08:15pm 14.9 11.7 11.8 82 1.7 SSE 20 30 11 16 1019.4 - 0.0
14/08:00pm 15.1 12.9 12.0 82 1.7 SE 15 22 8 12 1019.5 - 0.0
14/07:45pm 15.1 13.7 12.1 82 1.6 SE 11 20 6 11 1019.2 - 0.0
14/07:30pm 15.0 12.8 12.1 83 1.6 SE 15 26 8 14 1018.8 - 0.0
14/07:15pm 14.9 11.4 12.1 83 1.5 SSE 22 32 12 17 1018.3 - 0.0
14/06:45pm 14.8 10.5 12.0 83 1.5 SSE 26 37 14 20 1017.7 - 0.0
14/06:30pm 14.8 10.5 12.0 83 1.5 SSE 26 35 14 19 1017.5 - 0.0
14/06:15pm 14.9 10.9 11.9 82 1.6 SSE 24 37 13 20 1017.5 - 0.0
14/06:00pm 15.1 11.2 12.0 82 1.7 SSE 24 41 13 22 1017.4 - 0.0
14/05:45pm 15.3 11.7 11.9 80 1.9 SSE 22 37 12 20 1017.2 - 0.0
14/05:30pm 15.6 11.2 11.7 77 2.1 SSE 26 37 14 20 1017.1 - 0.0
14/05:15pm 16.0 12.3 11.6 75 2.4 SE 22 35 12 19 1017.0 - 0.0
14/05:00pm 16.3 11.8 11.5 73 2.6 SE 26 37 14 20 1016.8 - 0.0
14/04:45pm 16.7 12.7 11.9 73 2.6 SE 24 33 13 18 1016.7 - 0.0
14/04:30pm 16.9 13.7 12.0 73 2.7 SE 20 28 11 15 1016.6 - 0.0
14/04:15pm 17.1 13.1 11.7 70 3.0 SE 24 30 13 16 1016.6 - 0.0
14/04:00pm 17.8 13.5 12.0 69 3.2 SE 26 30 14 16 1016.4 - 0.0
14/03:45pm 18.2 14.7 12.2 68 3.3 SE 22 30 12 16 1016.4 - 0.0
14/03:30pm 18.9 15.5 12.5 66 3.6 ESE 22 28 12 15 1016.3 - 0.0
14/03:15pm 19.5 17.2 13.0 66 3.7 SE 17 26 9 14 1016.2 - 0.0
14/03:00pm 19.8 17.1 13.0 65 3.9 SE 19 26 10 14 1016.2 - 0.0
14/02:45pm 20.3 17.5 12.6 61 4.4 SE 19 28 10 15 1016.2 - 0.0
14/02:30pm 20.8 17.8 12.1 57 4.9 SE 19 28 10 15 1016.2 - 0.0
14/02:15pm 21.8 18.5 11.6 52 5.7 ESE 20 28 11 15 1016.2 - 0.0
14/02:00pm 23.3 21.3 8.5 38 7.9 SE 9 22 5 12 1016.1 - 0.0
14/01:45pm 23.0 21.4 8.9 40 7.6 SSW 7 15 4 8 1016.3 - 0.0
14/01:30pm 22.9 21.3 8.9 40 7.5 SSW 7 13 4 7 1016.5 - 0.0
14/01:15pm 22.4 20.4 8.8 41 7.3 SW 9 19 5 10 1016.7 - 0.0
14/01:00pm 22.5 21.2 9.2 42 7.2 W 6 13 3 7 1016.9 - 0.0
14/12:45pm 22.1 20.2 8.9 43 7.1 W 9 19 5 10 1017.2 - 0.0
14/12:30pm 21.7 20.3 9.6 46 6.5 W 7 15 4 8 1017.4 - 0.0
14/12:15pm 21.2 19.5 9.9 48 6.1 WNW 9 19 5 10 1017.7 - 0.0
14/12:00pm 21.1 19.1 10.2 49 5.9 W 11 17 6 9 1018.0 - 0.0
14/11:45am 20.9 19.5 10.9 52 5.5 W 9 17 5 9 1018.3 - 0.0
14/11:30am 20.9 20.2 11.9 56 5.1 WSW 7 17 4 9 1018.7 - 0.0
14/11:15am 19.8 18.5 11.4 58 4.7 WNW 9 17 5 9 1018.9 - 0.0
14/11:00am 19.6 18.5 12.0 61 4.2 WNW 9 15 5 8 1018.9 - 0.0
14/10:45am 19.2 18.1 11.8 62 4.1 WNW 9 15 5 8 1019.2 - 0.0
14/10:30am 19.0 17.5 12.0 64 3.9 NW 11 17 6 9 1019.5 - 0.0
14/10:15am 18.9 17.5 12.1 64 3.8 WNW 11 17 6 9 1019.7 - 0.0
14/10:00am 18.2 16.8 12.3 68 3.3 NW 11 15 6 8 1019.9 - 0.0
14/09:45am 17.7 16.3 12.3 70 3.0 WNW 11 15 6 8 1020.1 - 0.0
14/09:30am 17.6 16.3 12.4 71 2.9 WNW 11 17 6 9 1020.3 - 0.0
14/09:15am 17.3 16.0 12.5 73 2.7 W 11 15 6 8 1020.5 - 0.0
14/09:00am 16.8 15.9 12.6 76 2.3 W 9 15 5 8 1020.6 - 0.2
14/08:45am 16.5 15.5 13.3 81 1.8 W 11 15 6 8 1020.6 - 0.2
14/08:30am 16.1 15.3 13.9 87 1.3 WSW 11 15 6 8 1020.6 - 0.2
14/08:15am 15.5 14.7 14.0 91 0.9 SW 11 15 6 8 1020.6 - 0.2
14/08:00am 14.7 14.1 13.5 92 0.7 WSW 9 15 5 8 1020.5 - 0.2
14/07:45am 13.1 11.3 12.0 93 0.6 WSW 13 15 7 8 1020.5 - 0.2
14/07:30am 11.7 9.4 10.5 92 0.6 WSW 13 15 7 8 1020.5 - 0.2
14/07:15am 11.0 8.5 9.7 92 0.7 WSW 13 15 7 8 1020.4 - 0.2
14/07:00am 11.6 9.7 10.4 92 0.6 W 11 15 6 8 1020.3 - 0.2
14/06:45am 10.7 7.7 9.4 92 0.7 W 15 15 8 8 1020.3 - 0.2
14/06:30am 10.0 7.2 8.7 92 0.6 WSW 13 15 7 8 1020.3 - 0.2
14/06:15am 9.5 6.6 8.1 91 0.7 WSW 13 15 7 8 1020.4 - 0.2
14/06:00am 9.5 6.2 8.0 90 0.7 WSW 15 17 8 9 1020.4 - 0.2
14/05:45am 9.9 6.7 8.5 91 0.7 WSW 15 17 8 9 1020.4 - 0.2
14/05:30am 10.1 6.9 8.6 90 0.7 WSW 15 15 8 8 1020.4 - 0.2
14/05:15am 10.3 7.2 8.8 90 0.7 WSW 15 17 8 9 1020.4 - 0.2
14/05:00am 10.2 7.4 8.6 90 0.8 WSW 13 13 7 7 1020.4 - 0.2
14/04:45am 10.4 8.0 8.8 90 0.8 WSW 11 13 6 7 1020.4 - 0.2
14/04:30am 11.0 9.2 9.4 90 0.8 W 9 13 5 7 1020.5 - 0.2
14/04:15am 11.2 9.4 9.5 89 0.9 W 9 13 5 7 1020.5 - 0.2
14/04:00am 11.8 9.8 10.0 89 0.9 WNW 11 13 6 7 1020.5 - 0.2
14/03:45am 12.4 10.5 10.6 89 0.9 WNW 11 13 6 7 1020.5 - 0.2
14/03:30am 12.4 10.5 10.6 89 0.9 WNW 11 13 6 7 1020.7 - 0.2
14/03:15am 12.8 10.6 10.9 88 1.0 NW 13 15 7 8 1020.8 - 0.2
14/03:00am 13.0 10.9 11.2 89 1.0 NW 13 15 7 8 1021.0 - 0.2
14/02:45am 13.1 10.7 11.3 89 1.0 NW 15 15 8 8 1021.3 - 0.2
14/02:30am 13.0 10.9 11.1 88 1.0 NW 13 15 7 8 1021.4 - 0.2
14/02:15am 12.9 10.7 10.8 87 1.1 NW 13 15 7 8 1021.5 - 0.2
14/02:00am 13.4 11.7 11.2 86 1.2 NW 11 15 6 8 1021.7 - 0.2
14/01:45am 13.8 11.9 11.7 87 1.1 NW 13 15 7 8 1022.1 - 0.2
14/01:30am 13.9 12.0 11.7 86 1.2 NW 13 17 7 9 1022.2 - 0.2
14/01:15am 13.8 11.8 11.5 86 1.2 NW 13 15 7 8 1022.4 - 0.2
14/01:00am 14.0 12.1 11.7 86 1.2 NW 13 15 7 8 1022.5 - 0.2
14/12:45am 14.2 12.7 11.9 86 1.2 WNW 11 13 6 7 1022.7 - 0.2
14/12:30am 14.1 13.0 11.9 86 1.2 WNW 9 13 5 7 1022.8 - 0.2
14/12:15am 13.9 12.7 11.6 86 1.2 WNW 9 13 5 7 1022.8 - 0.2
14/12:00am 14.1 13.4 11.9 86 1.2 NW 7 9 4 5 1022.9 - 0.2
 
Date/Time
EST
Temp
°C
App
Temp
°C
Dew
Point
Rel
Hum
%
Delta-T
°C
Wind Press
QNH
hPa
Press
MSL
hPa
Rain
since 9 am
mm
Dir
 
Spd
km/h
Gust
km/h
Spd
kts
Gust
kts
13/11:45pm 14.1 13.0 11.9 86 1.2 NW 9 13 5 7 1023.0 - 0.2
13/11:30pm 14.2 13.1 12.0 87 1.2 NW 9 11 5 6 1023.1 - 0.2
13/11:15pm 14.2 12.7 12.0 87 1.2 NW 11 13 6 7 1023.3 - 0.2
13/11:00pm 14.1 13.0 11.9 86 1.2 NW 9 13 5 7 1023.5 - 0.2
13/10:45pm 14.0 13.2 11.8 86 1.2 NNW 7 13 4 7 1023.6 - 0.2
13/10:30pm 14.2 13.1 12.0 87 1.2 NNW 9 13 5 7 1023.7 - 0.2
13/10:15pm 14.2 13.1 11.9 86 1.2 NNW 9 11 5 6 1023.8 - 0.2
13/10:00pm 14.4 13.3 12.1 86 1.3 N 9 11 5 6 1023.8 - 0.2
13/09:45pm 14.5 13.8 12.1 85 1.3 N 7 11 4 6 1023.8 - 0.2
13/09:30pm 14.4 13.3 12.1 86 1.3 N 9 13 5 7 1023.8 - 0.2
13/09:15pm 14.3 13.2 12.0 86 1.2 NNE 9 13 5 7 1023.7 - 0.2
13/09:00pm 14.2 12.7 11.9 86 1.2 NE 11 13 6 7 1023.8 - 0.2
13/08:45pm 14.2 12.7 11.9 86 1.2 NE 11 15 6 8 1023.8 - 0.2
13/08:30pm 13.9 11.9 11.5 85 1.3 NE 13 17 7 9 1023.9 - 0.2
13/08:15pm 14.1 12.1 11.6 85 1.3 NE 13 15 7 8 1023.8 - 0.2
13/08:00pm 14.3 12.3 11.6 84 1.5 NE 13 17 7 9 1023.9 - 0.2
13/07:45pm 14.4 12.4 11.6 83 1.5 NE 13 19 7 10 1023.8 - 0.2
13/07:30pm 14.6 12.7 11.7 83 1.6 NE 13 17 7 9 1023.8 - 0.2
13/07:15pm 14.7 13.2 11.8 83 1.6 NE 11 15 6 8 1023.9 - 0.2
13/07:00pm 14.7 13.1 11.7 82 1.6 NE 11 15 6 8 1023.7 - 0.2
13/06:45pm 14.8 13.2 11.7 82 1.7 ENE 11 15 6 8 1023.6 - 0.2
13/06:30pm 14.8 12.8 11.6 81 1.7 ENE 13 20 7 11 1023.4 - 0.2
13/06:15pm 14.9 13.3 11.6 80 1.8 ENE 11 17 6 9 1023.4 - 0.2
13/06:00pm 14.9 12.9 11.5 80 1.8 ENE 13 19 7 10 1023.3 - 0.2
13/05:45pm 14.9 12.5 11.4 79 1.9 ENE 15 22 8 12 1023.1 - 0.2
13/05:30pm 15.1 13.1 11.4 78 2.0 ENE 13 22 7 12 1022.8 - 0.2
13/05:15pm 15.4 13.0 11.5 77 2.1 ENE 15 19 8 10 1022.8 - 0.2
13/05:00pm 15.7 12.9 11.5 76 2.3 NE 17 22 9 12 1022.8 - 0.2
13/04:45pm 15.9 12.7 11.4 74 2.4 ENE 19 24 10 13 1022.7 - 0.2
13/04:30pm 16.1 13.4 11.8 75 2.4 ENE 17 22 9 12 1022.8 - 0.2
13/04:15pm 15.6 12.9 11.6 77 2.2 ENE 17 22 9 12 1022.8 - 0.2
13/04:00pm 15.7 13.0 11.7 77 2.2 ENE 17 24 9 13 1022.9 - 0.2
13/03:45pm 15.7 12.5 11.4 75 2.3 NE 19 26 10 14 1023.0 - 0.2
13/03:30pm 16.3 13.2 11.7 74 2.5 ENE 19 24 10 13 1023.2 - 0.2
13/03:15pm 16.8 13.9 12.2 74 2.5 ENE 19 26 10 14 1023.3 - 0.2
13/03:00pm 16.8 13.8 11.8 72 2.7 ENE 19 26 10 14 1023.4 - 0.2
13/02:45pm 17.3 14.7 12.1 71 2.9 ENE 17 26 9 14 1023.6 - 0.2
13/02:30pm 17.4 15.4 12.6 73 2.7 ENE 15 22 8 12 1023.7 - 0.2
13/02:15pm 16.8 14.5 11.9 73 2.7 E 15 20 8 11 1023.9 - 0.2
13/02:00pm 16.9 15.1 12.1 73 2.7 ENE 13 22 7 12 1024.1 - 0.2
13/01:45pm 17.0 15.0 12.6 75 2.5 ENE 15 19 8 10 1024.3 - 0.2
13/01:30pm 16.4 14.5 11.9 75 2.5 E 13 19 7 10 1024.4 - 0.2
13/01:15pm 16.6 15.2 12.2 75 2.4 ENE 11 19 6 10 1024.4 - 0.2
13/01:00pm 16.1 14.7 12.1 77 2.2 E 11 15 6 8 1024.7 - 0.2
13/12:45pm 16.1 15.1 12.2 77 2.1 ENE 9 15 5 8 1025.0 - 0.2
13/12:30pm 16.0 14.9 12.0 77 2.2 E 9 15 5 8 1025.3 - 0.2
13/12:15pm 16.3 15.4 12.7 79 2.0 E 9 15 5 8 1025.6 - 0.2
13/12:00pm 15.5 14.5 12.3 81 1.8 E 9 15 5 8 1025.8 - 0.2
13/11:45am 15.3 13.7 11.7 79 2.0 E 11 15 6 8 1026.0 - 0.2
13/11:30am 15.8 15.1 11.9 77 2.1 E 7 13 4 7 1026.1 - 0.2
13/11:15am 15.3 14.8 12.1 81 1.8 NE 6 11 3 6 1026.1 - 0.2
13/11:00am 14.6 13.8 11.8 83 1.5 NNW 7 11 4 6 1026.3 - 0.2
13/10:45am 14.4 13.7 12.0 85 1.3 NNW 7 11 4 6 1026.5 - 0.2
13/10:30am 13.7 12.4 11.2 85 1.3 NW 9 13 5 7 1026.7 - 0.2
13/10:15am 14.0 13.1 11.3 84 1.4 NW 7 15 4 8 1026.8 - 0.2
13/10:00am 13.8 13.0 11.2 84 1.4 NW 6 9 3 5 1026.9 - 0.2
13/09:45am 13.6 12.7 10.5 81 1.6 N 6 9 3 5 1027.0 - 0.2
13/09:30am 14.3 13.4 10.5 78 2.0 NE 6 9 3 5 1027.0 - 0.0
13/09:15am 14.6 13.1 10.6 77 2.1 E 9 13 5 7 1027.0 - 0.0
13/09:00am 14.8 13.7 10.8 77 2.1 SE 7 13 4 7 1027.0 - 0.0
13/08:45am 14.7 13.8 10.7 77 2.1 SE 6 9 3 5 1026.9 - 0.0
13/08:30am 14.6 13.5 10.8 78 2.0 SE 7 13 4 7 1026.9 - 0.0
13/08:15am 14.3 12.9 10.8 79 1.9 SE 9 15 5 8 1026.8 - 0.0
13/08:00am 13.5 11.9 10.3 81 1.7 SE 9 15 5 8 1026.7 - 0.0
13/07:45am 13.5 12.0 10.5 82 1.6 SE 9 13 5 7 1026.6 - 0.0
13/07:30am 13.0 11.3 10.0 82 1.6 SE 9 11 5 6 1026.4 - 0.0
13/07:15am 12.9 11.6 10.1 83 1.5 E 7 9 4 5 1026.3 - 0.0
13/07:00am 12.5 11.2 9.8 83 1.4 ENE 7 9 4 5 1026.1 - 0.0
13/06:45am 11.9 10.5 9.4 85 1.3 E 7 11 4 6 1025.9 - 0.0
13/06:30am 11.6 10.1 9.0 84 1.3 NE 7 9 4 5 1025.7 - 0.0
13/06:15am 11.5 9.9 8.8 83 1.4 NNE 7 9 4 5 1025.5 - 0.0
13/06:00am 11.5 10.0 8.5 82 1.5 E 6 9 3 5 1025.3 - 0.0
13/05:45am 11.9 10.3 8.7 81 1.6 SE 7 9 4 5 1025.1 - 0.0
13/05:30am 12.2 10.3 8.9 80 1.7 SSE 9 13 5 7 1025.0 - 0.0
13/05:15am 12.4 9.7 9.0 80 1.7 SSE 13 19 7 10 1024.9 - 0.0
13/05:00am 12.5 9.5 9.1 80 1.7 SSE 15 19 8 10 1024.9 - 0.0
13/04:45am 12.4 10.2 9.2 81 1.6 SSE 11 15 6 8 1025.0 - 0.0
13/04:30am 12.4 10.5 9.2 81 1.6 SSE 9 11 5 6 1025.0 - 0.0
13/04:15am 12.4 10.5 9.2 81 1.6 SSE 9 11 5 6 1025.0 - 0.0
13/04:00am 12.5 10.6 9.2 80 1.7 SSE 9 13 5 7 1024.9 - 0.0
13/03:45am 12.5 10.7 9.3 81 1.6 SSE 9 13 5 7 1025.0 - 0.0
13/03:30am 12.6 10.4 9.4 81 1.6 SSE 11 13 6 7 1025.1 - 0.0
13/03:15am 12.5 10.3 9.3 81 1.6 S 11 13 6 7 1025.1 - 0.0
13/03:00am 12.5 10.3 9.3 81 1.6 S 11 13 6 7 1025.2 - 0.0
13/02:45am 12.5 10.3 9.3 81 1.6 S 11 13 6 7 1025.2 - 0.0
13/02:30am 12.7 10.9 9.3 80 1.7 S 9 13 5 7 1025.2 - 0.0
13/02:15am 12.7 10.9 9.4 80 1.7 SSE 9 13 5 7 1025.4 - 0.0
13/02:00am 12.6 10.8 9.3 80 1.7 SSE 9 13 5 7 1025.4 - 0.0
13/01:45am 12.5 11.0 9.2 80 1.7 SSE 7 9 4 5 1025.5 - 0.0
13/01:30am 12.5 11.0 9.3 81 1.6 S 7 11 4 6 1025.6 - 0.0
13/01:15am 12.6 11.1 9.2 80 1.7 S 7 9 4 5 1025.8 - 0.0
13/01:00am 12.6 10.8 9.3 80 1.7 S 9 13 5 7 1025.9 - 0.0
13/12:45am 12.6 10.7 9.2 80 1.7 SSE 9 13 5 7 1026.1 - 0.0
13/12:30am 12.5 10.6 9.2 80 1.7 SSE 9 9 5 5 1026.1 - 0.0
13/12:15am 12.4 10.5 9.0 80 1.7 SSE 9 11 5 6 1026.2 - 0.0
13/12:00am 12.6 10.7 9.1 79 1.8 S 9 9 5 5 1026.3 - 0.0
 
Date/Time
EST
Temp
°C
App
Temp
°C
Dew
Point
Rel
Hum
%
Delta-T
°C
Wind Press
QNH
hPa
Press
MSL
hPa
Rain
since 9 am
mm
Dir
 
Spd
km/h
Gust
km/h
Spd
kts
Gust
kts
12/11:45pm 12.6 10.7 9.1 79 1.8 S 9 11 5 6 1026.4 - 0.0
12/11:30pm 12.7 10.8 9.1 79 1.8 S 9 13 5 7 1026.5 - 0.0
12/11:15pm 12.7 10.4 9.0 78 1.9 S 11 13 6 7 1026.6 - 0.0
12/11:00pm 12.8 10.5 9.0 78 1.9 S 11 13 6 7 1026.6 - 0.0
12/10:45pm 12.9 10.6 9.0 77 2.0 S 11 13 6 7 1026.7 - 0.0
12/10:30pm 12.9 10.6 8.9 76 2.0 S 11 15 6 8 1026.7 - 0.0
12/10:15pm 13.1 10.7 8.8 75 2.2 SSE 11 13 6 7 1026.7 - 0.0
12/10:00pm 13.2 11.2 8.6 73 2.3 SSE 9 15 5 8 1026.7 - 0.0
12/09:45pm 13.3 10.9 8.7 73 2.3 SE 11 15 6 8 1026.6 - 0.0
12/09:30pm 13.3 10.9 8.6 73 2.4 SE 11 17 6 9 1026.5 - 0.0
12/09:15pm 13.3 10.5 8.5 72 2.4 SE 13 15 7 8 1026.4 - 0.0
12/09:00pm 13.3 10.8 8.4 72 2.5 SE 11 17 6 9 1026.4 - 0.0
12/08:45pm 13.3 10.8 8.3 72 2.5 SE 11 15 6 8 1026.4 - 0.0
12/08:30pm 13.3 10.8 8.3 72 2.5 SE 11 15 6 8 1026.3 - 0.0
12/08:15pm 13.2 10.3 8.3 72 2.5 SE 13 17 7 9 1026.2 - 0.0
12/08:00pm 13.1 10.6 8.1 71 2.5 SE 11 15 6 8 1026.2 - 0.0
12/07:45pm 13.1 10.6 8.0 71 2.5 SE 11 15 6 8 1026.0 - 0.0
12/07:30pm 13.2 10.7 8.0 71 2.6 SE 11 17 6 9 1026.0 - 0.0
12/07:15pm 13.2 10.6 7.9 70 2.6 SE 11 17 6 9 1025.9 - 0.0
12/07:00pm 13.2 10.6 7.8 70 2.7 SE 11 15 6 8 1025.7 - 0.0
12/06:45pm 13.2 10.6 7.8 70 2.7 SE 11 17 6 9 1025.5 - 0.0
12/06:30pm 13.2 10.6 7.7 69 2.7 SE 11 17 6 9 1025.3 - 0.0
12/06:15pm 13.3 10.7 7.7 69 2.8 SE 11 15 6 8 1025.2 - 0.0
12/06:00pm 13.3 9.9 7.6 68 2.8 SE 15 19 8 10 1025.0 - 0.0
12/05:45pm 13.4 10.0 7.6 68 2.9 SE 15 22 8 12 1024.9 - 0.0
12/05:30pm 13.4 9.6 7.4 67 3.0 SE 17 22 9 12 1024.8 - 0.0
12/05:15pm 13.5 9.7 7.4 66 3.0 SE 17 24 9 13 1024.7 - 0.0
12/05:00pm 13.7 9.9 7.4 65 3.1 SE 17 24 9 13 1024.7 - 0.0
12/04:45pm 13.9 10.9 7.5 65 3.2 SE 13 20 7 11 1024.7 - 0.0
12/04:30pm 14.1 10.7 7.7 65 3.2 SE 15 22 8 12 1024.6 - 0.0
12/04:15pm 14.2 10.8 7.7 65 3.2 ESE 15 19 8 10 1024.6 - 0.0
12/04:00pm 14.3 10.9 7.8 65 3.2 ESE 15 19 8 10 1024.6 - 0.0
12/03:45pm 14.5 10.7 7.6 63 3.4 ESE 17 24 9 13 1024.4 - 0.0
12/03:30pm 15.1 11.8 8.2 63 3.5 ESE 15 22 8 12 1024.4 - 0.0
12/03:15pm 14.6 11.3 8.0 64 3.3 SE 15 24 8 13 1024.5 - 0.0
12/03:00pm 14.6 11.6 7.7 63 3.4 SE 13 22 7 12 1024.6 - 0.0
12/02:45pm 14.7 10.9 7.6 62 3.5 SE 17 24 9 13 1024.7 - 0.0
12/02:30pm 14.6 11.2 7.6 63 3.5 SE 15 22 8 12 1024.8 - 0.0
12/02:15pm 14.4 11.4 7.5 63 3.4 SE 13 20 7 11 1024.9 - 0.0

Other Formats:

Comma delimited format used in spreadsheet applications
http://www.bom.gov.au/fwo/IDN60801/IDN60801.95757.axf

JavaScript Object Notation format (JSON) in row-major order
http://www.bom.gov.au/fwo/IDN60801/IDN60801.95757.json